Edwards Creek Valley, Nevada Weather observations

Data are for observation ending at time listed.
 Day   Time    Ave.   Ave.  Ave.  Vector   Max.   Stn.    Total    Solar   Ave.  
  of    of     Air    Rel.  Wind   Wind    Wind   Baro.  Precip.   Rad.    Soil  
Year   Day     Temp.  Hum.  Speed  Dir.    Gust   Pres.                    Temp. 
2014   (PST)    F      %     mph   deg.    mph     mb.     in.     W/m2     F   
------------------------------------------------------------------------------
 294   20:30   36.5    31    3.2   202      3.9    846     0.00       0     55.8
 294   20:40   35.5    32    3.6   183      4.5    846     0.00       0     55.5
 294   20:50   34.4    33    3.0   225      4.1    847     0.00       0     55.3
 294   21:00   34.7    33    3.4   211      4.5    846     0.00       0     55.0
 294   21:10   34.8    33    2.8   206      4.7    846     0.00       0     54.7
 294   21:20   35.1    33    3.8   190      4.7    846     0.00       0     54.4
 294   21:30   35.3    33    4.6   177      5.6    846     0.00       0     54.2
 294   21:40   34.9    33    4.9   162      5.8    846     0.00       0     53.9
 294   21:50   34.7    33    4.3   152      6.3    846     0.00       0     53.7
 294   22:00   35.5    33    4.6   158      6.1    846     0.00       0     53.4
 294   22:10   34.7    33    3.3   176      4.4    846     0.00       0     53.2
 294   22:20   33.2    35    2.5   211      4.0    846     0.00       0     53.0
 294   22:30   32.1    37    5.1   174      6.9    846     0.00       0     52.8
 294   22:40   33.8    36    5.5   165      6.5    846     0.00       0     52.6
 294   22:50   34.7    35    5.2   155      6.2    846     0.00       0     52.3
 294   23:00   35.0    35    4.6   149      5.7    846     0.00       0     52.1
 294   23:10   34.4    35    4.0   161      4.8    846     0.00       0     51.9
 294   23:20   33.9    35    2.1   184      3.3    845     0.00       0     51.7
 294   23:30   32.7    36    0.9   264      2.6    845     0.00       0     51.5
 294   23:40   30.7    38    1.2   278      2.3    845     0.00       0     51.4
 294   23:50   30.2    38    1.2   213      3.1    846     0.00       0     51.2
 295    0:00   32.5    38    3.2   195      4.1    846     0.00       0     51.0
 295    0:10   33.9    36    3.2   197      4.2    846     0.00       0     50.9
 295    0:20   32.8    37    2.3   147      4.4    845     0.00       0     50.8
 295    0:30   32.5    38    3.7   136      6.2    845     0.00       0     50.6
 295    0:40   33.0    36    4.5   127      5.6    845     0.00       0     50.4
 295    0:50   32.7    36    3.6   114      4.5    845     0.00       0     50.3
 295    1:00   33.1    36    1.5   115      2.6    846     0.00       0     50.1
 295    1:10   33.3    36    0.2   123      1.2    846     0.00       0     50.0
 295    1:20   31.9    36    2.4   270      4.2    846     0.00       0     49.9
 295    1:30   30.0    37    1.6   312      2.5    846     0.00       0     49.7
 295    1:40   29.8    37    1.7   301      2.4    846     0.00       0     49.6
 295    1:50   30.1    38    0.5   284      1.5    846     0.00       0     49.4
 295    2:00   30.3    37    1.9   172      2.6    847     0.00       0     49.3
 295    2:10   29.8    38    2.9   154      3.7    846     0.00       0     49.1
 295    2:20   30.0    39    4.0   146      4.9    846     0.00       0     49.0
 295    2:30   30.6    39    3.7   160      4.6    846     0.00       0     48.8
 295    2:40   30.6    39    4.2   163      5.2    846     0.00       0     48.7
 295    2:50   31.2    40    4.6   174      5.5    846     0.00       0     48.5
 295    3:00   31.1    39    2.8   176      4.4    846     0.00       0     48.4
 295    3:10   29.9    40    3.0   194      3.9    846     0.00       0     48.3
 295    3:20   28.6    41    3.4   185      4.2    846     0.00       0     48.1
 295    3:30   29.1    42    3.5   178      4.5    846     0.00       0     48.0
 295    3:40   30.0    41    4.1   186      5.3    846     0.00       0     47.8
 295    3:50   30.7    40    3.1   188      4.3    846     0.00       0     47.7
 295    4:00   30.9    39    2.4   192      2.9    846     0.00       0     47.6
 295    4:10   29.9    40    1.9   248      3.1    846     0.00       0     47.5
 295    4:20   28.5    42    2.0   238      2.8    846     0.00       0     47.4
 295    4:30   28.4    41    1.5   227      2.6    846     0.00       0     47.3
 295    4:40   28.5    42    2.1   172      3.6    846     0.00       0     47.2
 295    4:50   29.0    43    3.6   135      4.7    846     0.00       0     47.1
 295    5:00   29.2    43    3.3   128      3.9    846     0.00       0     47.0
 295    5:10   29.2    43    3.6   157      4.2    846     0.00       0     46.9
 295    5:20   29.4    44    3.4   165      3.9    846     0.00       0     46.7
 295    5:30   29.2    43    3.5   160      4.1    847     0.00       0     46.6
 295    5:40   28.4    43    1.3   222      2.4    847     0.00       0     46.5
 295    5:50   26.0    46    2.6   248      3.8    847     0.00       0     46.3
 295    6:00   25.4    44    2.4   245      3.8    846     0.00       0     46.2
 295    6:10   25.6    44    2.9   234      4.1    847     0.00       3     46.0
 295    6:20   26.1    44    2.4   227      3.7    847     0.00      10     45.8
 295    6:30   26.8    44    2.4   212      3.4    847     0.00      20     45.6
 295    6:40   27.8    44    2.1   206      2.8    847     0.00      46     45.5
 295    6:50   30.4    41    2.2   180      3.4    847     0.00      66     45.4
 295    7:00   32.7    39    2.1   170      3.3    847     0.00      97     45.3
 295    7:10   35.0    36    1.3   154      2.5    848     0.00     120     45.3
 295    7:20   37.4    34    2.0   144      2.8    848     0.00     151     45.3
 295    7:30   39.0    32    2.4   109      3.9    848     0.00     195     45.4
 295    7:40   40.3    31    2.7   116      3.7    848     0.00     219     45.6
 295    7:50   42.4    29    1.2   113      3.0    848     0.00     261     45.8
 295    8:00   45.2    26    1.2   135      3.1    848     0.00     282     46.1
 295    8:10   45.8    25    0.7   276      2.6    848     0.00     313     46.5
 295    8:20   46.4    25    0.9    29      3.0    848     0.00     330     47.0
 295    8:30   46.7    25    2.4   349      4.2    848     0.00     373     47.5
 295    8:40   46.9    25    2.9   300      5.7    848     0.00     409     48.0
 295    8:50   47.0    25    3.0   325      5.6    848     0.00     421     48.7
 295    9:00   47.4    24    2.9   345      5.3    848     0.00     438     49.2
 295    9:10   48.2    24    3.5   334      5.8    848     0.00     455     49.8
 295    9:20   49.2    23    2.5   320      5.0    848     0.00     489     50.3
 295    9:30   50.8    22    1.9   331      4.2    848     0.00     529     50.9
 295    9:40   51.7    22    2.4    13      6.4    848     0.00     521     51.5
 295    9:50   52.5    21    2.6    58      5.6    848     0.00     561     52.1
 295   10:00   53.8    20    3.1    74      7.0    848     0.00     570     52.8
 295   10:10   54.6    20    2.3    30      6.0    847     0.00     584     53.4
 295   10:20   55.6    19    2.5    74      5.9    848     0.00     598     54.1
 295   10:30   56.7    19    2.0   238      3.9    848     0.00     612     54.6
 295   10:40   57.5    18    1.9   323      5.5    850     0.00     627     54.9
 295   10:50   58.2    18    2.6   340      5.3    849     0.00     634     55.0
 295   11:00   58.5    18    2.9   334      5.7    848     0.00     643     55.0
 295   11:10   59.5    18    3.2    19      5.3    848     0.00     654     55.1
 295   11:20   60.9    17    2.5     7      5.4    848     0.00     655     55.3
 295   11:30   62.0    16    2.8    56      6.6    847     0.00     678     55.7
 295   11:40   62.8    17    4.5    62      8.0    847     0.00     685     56.3
 295   11:50   63.9    16    3.8   121      7.5    847     0.00     639     56.9
 295   12:00   64.6    17    3.7    87      7.2    847     0.00     666     57.5
 295   12:10   66.0    16    2.7   121      7.5    848     0.00     669     58.0
 295   12:20   67.9    16    2.9   228     12.2    848     0.00     673     58.6
 295   12:30   67.9    16    4.6   210     12.0    847     0.00     627     59.2
 295   12:40   67.5    17    3.9   238      7.5    847     0.00     456     59.9
 295   12:50   67.3    17    3.8   200     10.7    847     0.00     377     60.4
 295   13:00   67.3    17    4.8   205     10.4    847     0.00     332     60.9
 295   13:10   67.3    17    4.8   218      9.4    846     0.00     353     61.3
 295   13:20   68.3    17    6.0   222     13.2    846     0.00     520     61.6
 295   13:30   69.2    16    6.4   216     11.9    845     0.00     507     61.9
 295   13:40   69.1    16    6.6   219     12.9    845     0.00     434     62.2
 295   13:50   69.2    16    5.9   193     12.1    845     0.00     419     62.5
 295   14:00   69.2    16    7.3   215     12.8    845     0.00     327     62.9
 295   14:10   68.9    16    5.7   217     10.3    845     0.00     249     63.2
 295   14:20   68.9    16    7.5   224     12.3    845     0.00     225     63.4
 295   14:30   68.9    16    6.7   215     10.6    845     0.00     227     63.5
 295   14:40   69.1    16    7.6   233     12.7    845     0.00     286     63.5
 295   14:50   69.6    16    8.3   214     12.6    845     0.00     314     63.5
 295   15:00   69.7    15    7.4   227     13.2    845     0.00     193     63.6
 295   15:10   68.8    16    6.2   226     10.3    845     0.00     151     63.6
 295   15:20   68.7    16    7.5   229     10.8    845     0.00     177     63.6
 295   15:30   69.4    16    7.8   218     12.9    845     0.00     289     63.6
 295   15:40   70.2    15    7.6   224     10.3    845     0.00     260     63.5
 295   15:50   69.3    16    6.1   221      8.7    845     0.00     154     63.5
 295   16:00   68.7    16    5.4   208      9.0    845     0.00      99     63.5
 295   16:10   67.7    17    4.2   214      6.7    845     0.00      81     63.3
 295   16:20   67.4    17    3.5   222      5.0    844     0.00      93     63.2
 295   16:30   66.8    17    3.1   232      4.2    845     0.00      52     63.0
 295   16:40   65.0    18    2.9   243      3.6    845     0.00      30     62.7
 295   16:50   63.1    19    2.9   287      5.8    844     0.00      17     62.5
 295   17:00   59.8    21    3.4    25      5.8    845     0.00       8     62.2
 295   17:10   58.5    22    4.2    17      5.0    844     0.00       2     61.9
 295   17:20   58.3    22    3.6    42      5.7    845     0.00       0     61.5
 295   17:30   57.6    22    2.6    77      3.8    845     0.00       0     61.2
 295   17:40   56.9    22    3.2   102      4.7    844     0.00       0     60.8
 295   17:50   54.1    23    4.7   142      6.1    845     0.00       0     60.4
 295   18:00   53.5    24    4.3   135      4.8    845     0.00       0     60.1
 295   18:10   53.4    24    5.0   121      6.4    845     0.00       0     59.8
 295   18:20   53.0    26    4.3   110      5.6    844     0.00       0     59.5
 295   18:30   50.2    26    3.4   187      4.3    845     0.00       0     59.2
 295   18:40   47.4    28    4.4   177      5.0    845     0.00       0     58.9
 295   18:50   45.8    30    4.2   164      5.0    845     0.00       0     58.5
 295   19:00   44.8    30    3.9   164      4.7    845     0.00       0     58.2
 295   19:10   44.2    31    4.3   166      5.2    846     0.00       0     58.0
 295   19:20   44.3    31    4.2   180      5.2    845     0.00       0     57.7
 295   19:30   44.0    31    3.4   176      3.9    845     0.00       0     57.4
 295   19:40   43.4    31    3.8   175      4.4    845     0.00       0     57.1
 295   19:50   43.4    31    4.2   184      5.6    845     0.00       0     56.8
 295   20:00   46.1    31    4.6   191      5.8    845     0.00       0     56.5
 295   20:10   44.7    32    4.4   215      6.1    845     0.00       0     56.3
 295   20:20   45.2    32    5.2   196      6.8    846     0.00       0     56.1

Return to Carson Sink graphs page.


Western Regional Climate Center,wrcc@dri.edu